Time;durP1;ratioP1;P1;durP2;ratioP2;P2;SDS_P1;SDS_P2;PMS_P1;PMS_P2;Temp;Humidity;BMP_temperature;BMP_pressure;BME280_temperature;BME280_humidity;BME280_pressure;Samples;Min_cycle;Max_cycle;Signal;HPM_P1;HPM_P2
2023/03/15 00:00:53;;;;;;;6.68;3.83;;;2.70;91.00;;;;;;5045563;28;20439;-72
2023/03/15 00:03:19;;;;;;;7.80;4.13;;;2.70;90.90;;;;;;5054699;28;20236;-72
2023/03/15 00:05:47;;;;;;;9.10;4.28;;;2.70;90.90;;;;;;5058730;28;20422;-73
2023/03/15 00:08:13;;;;;;;9.85;4.75;;;2.70;91.00;;;;;;5051587;28;20660;-72
2023/03/15 00:10:44;;;;;;;7.10;4.25;;;2.70;90.60;;;;;;5042911;28;20334;-72
2023/03/15 00:13:11;;;;;;;10.48;4.97;;;2.70;90.40;;;;;;5028522;28;20382;-72
2023/03/15 00:15:47;;;;;;;10.30;4.50;;;2.80;90.60;;;;;;5050007;28;20187;-71
2023/03/15 00:18:13;;;;;;;8.00;4.43;;;2.80;90.70;;;;;;5043356;28;20539;-73
2023/03/15 00:20:39;;;;;;;7.80;4.60;;;2.80;90.70;;;;;;5029618;28;20454;-72
2023/03/15 00:23:05;;;;;;;8.80;4.27;;;2.80;90.40;;;;;;5047348;28;20415;-72
2023/03/15 00:25:30;;;;;;;11.20;4.40;;;2.80;90.40;;;;;;5046515;28;20447;-73
2023/03/15 00:27:56;;;;;;;12.27;5.33;;;2.80;90.20;;;;;;5049036;28;20502;-72
2023/03/15 00:30:21;;;;;;;8.17;4.70;;;2.80;89.90;;;;;;5033547;28;20381;-72
2023/03/15 00:32:47;;;;;;;10.00;5.27;;;2.80;89.60;;;;;;5050988;28;20197;-72
2023/03/15 00:35:13;;;;;;;8.80;4.83;;;2.80;89.60;;;;;;5051426;28;20188;-71
2023/03/15 00:37:39;;;;;;;12.55;5.45;;;2.80;89.70;;;;;;5050011;28;20268;-73
2023/03/15 00:40:06;;;;;;;13.67;5.90;;;2.70;89.30;;;;;;5044049;28;20335;-71
2023/03/15 00:42:32;;;;;;;17.67;6.30;;;2.70;89.90;;;;;;5044625;28;20656;-72
2023/03/15 00:44:58;;;;;;;12.17;5.00;;;2.80;90.20;;;;;;5031648;28;20421;-72
2023/03/15 00:47:24;;;;;;;8.80;4.90;;;2.90;90.20;;;;;;5050735;28;20501;-72
2023/03/15 00:49:49;;;;;;;11.57;4.87;;;2.80;89.70;;;;;;5046360;28;20458;-72
2023/03/15 00:52:16;;;;;;;9.70;4.37;;;2.80;89.70;;;;;;5050643;28;20222;-72
2023/03/15 00:54:42;;;;;;;7.40;4.37;;;2.90;90.10;;;;;;5050422;28;20276;-72
2023/03/15 00:57:08;;;;;;;10.47;5.10;;;2.90;89.60;;;;;;5035793;28;20502;-72
2023/03/15 00:59:34;;;;;;;11.17;4.73;;;2.90;89.50;;;;;;5047597;28;20516;-72
2023/03/15 01:02:05;;;;;;;9.87;4.83;;;2.90;89.60;;;;;;5053992;28;20741;-72
2023/03/15 01:04:31;;;;;;;6.60;3.87;;;2.90;89.30;;;;;;5048250;28;20845;-73
2023/03/15 01:06:57;;;;;;;9.93;5.10;;;3.00;89.50;;;;;;5051055;28;20514;-72
2023/03/15 01:09:23;;;;;;;11.43;4.40;;;3.00;89.70;;;;;;5043501;28;20239;-73
2023/03/15 01:11:49;;;;;;;8.38;4.13;;;3.10;89.70;;;;;;5047467;28;20553;-72
2023/03/15 01:14:15;;;;;;;10.20;4.20;;;3.10;89.50;;;;;;5047085;28;20223;-72
2023/03/15 01:16:41;;;;;;;6.60;4.00;;;2.90;88.30;;;;;;5047093;28;20755;-72
2023/03/15 01:19:06;;;;;;;8.63;3.97;;;2.90;88.40;;;;;;5047696;28;20537;-72
2023/03/15 01:21:32;;;;;;;9.67;4.83;;;2.80;88.60;;;;;;5046959;28;20241;-72
2023/03/15 01:23:57;;;;;;;7.20;3.50;;;2.80;88.60;;;;;;5044171;28;20188;-73
2023/03/15 01:26:23;;;;;;;10.90;3.73;;;2.80;88.70;;;;;;5050893;28;20219;-73
2023/03/15 01:28:49;;;;;;;8.50;4.00;;;2.80;88.60;;;;;;5049290;28;20220;-72
2023/03/15 01:31:26;;;;;;;6.37;3.37;;;2.80;88.40;;;;;;5050581;28;20219;-71
2023/03/15 01:33:52;;;;;;;10.85;3.70;;;2.80;88.60;;;;;;5049525;28;20196;-71
2023/03/15 01:36:18;;;;;;;5.37;2.77;;;2.70;88.40;;;;;;5050107;28;20184;-72
2023/03/15 01:38:44;;;;;;;7.53;2.60;;;2.70;88.40;;;;;;5026487;28;20923;-72
2023/03/15 01:41:12;;;;;;;8.73;3.63;;;2.60;87.70;;;;;;5046922;28;20425;-72
2023/03/15 01:43:37;;;;;;;11.27;3.17;;;2.70;87.70;;;;;;5048699;28;20439;-72
2023/03/15 01:46:13;;;;;;;6.70;2.60;;;2.70;87.70;;;;;;5030580;28;20800;-73
2023/03/15 01:48:49;;;;;;;5.53;2.70;;;2.70;87.60;;;;;;5047433;28;20195;-73
2023/03/15 01:51:15;;;;;;;6.03;2.60;;;2.60;87.30;;;;;;5045463;28;20462;-73
2023/03/15 01:53:44;;;;;;;5.40;2.60;;;2.60;87.30;;;;;;5046209;28;20765;-72
2023/03/15 01:56:10;;;;;;;7.60;2.60;;;2.60;87.00;;;;;;5046503;28;20191;-72
2023/03/15 01:58:39;;;;;;;5.27;2.77;;;2.60;87.00;;;;;;5042814;28;20407;-72
2023/03/15 02:01:06;;;;;;;9.17;2.97;;;2.60;87.00;;;;;;5042517;28;20967;-73
2023/03/15 02:03:37;;;;;;;7.13;2.77;;;2.50;86.60;;;;;;5047848;28;20415;-72
2023/03/15 02:06:07;;;;;;;7.70;2.97;;;2.50;86.80;;;;;;5049914;28;20498;-72
2023/03/15 02:08:38;;;;;;;7.63;2.70;;;2.50;86.50;;;;;;5047586;28;20453;-73
2023/03/15 02:11:04;;;;;;;5.97;2.67;;;2.50;86.80;;;;;;5039565;28;20593;-72
2023/03/15 02:13:32;;;;;;;6.60;2.30;;;2.50;86.80;;;;;;5057012;28;20418;-72
2023/03/15 02:15:58;;;;;;;6.43;3.00;;;2.50;86.60;;;;;;5060974;28;20430;-71
2023/03/15 02:18:24;;;;;;;7.00;2.53;;;2.60;86.50;;;;;;5067750;28;20734;-72
2023/03/15 02:20:59;;;;;;;8.87;2.60;;;2.60;86.30;;;;;;5065771;28;20478;-72
2023/03/15 02:23:25;;;;;;;5.10;2.60;;;2.50;86.30;;;;;;5063976;28;20434;-71
2023/03/15 02:25:54;;;;;;;9.00;2.30;;;2.50;86.30;;;;;;5053641;28;20518;-72
2023/03/15 02:28:19;;;;;;;5.10;2.47;;;2.50;86.00;;;;;;5054652;28;20449;-73
2023/03/15 02:30:46;;;;;;;4.57;2.10;;;2.40;85.90;;;;;;5046229;28;20471;-72
2023/03/15 02:33:18;;;;;;;6.10;2.70;;;2.40;85.90;;;;;;5030858;28;20423;-73
2023/03/15 02:35:44;;;;;;;5.83;1.80;;;2.40;85.70;;;;;;5047546;28;20434;-73
2023/03/15 02:38:09;;;;;;;3.73;1.90;;;2.40;85.70;;;;;;5051352;28;20422;-71
2023/03/15 02:40:35;;;;;;;5.00;2.20;;;2.30;85.60;;;;;;5045930;28;20224;-73
2023/03/15 02:43:05;;;;;;;7.70;1.90;;;2.30;85.70;;;;;;5047992;28;20666;-70
2023/03/15 02:45:34;;;;;;;4.37;1.70;;;2.30;85.90;;;;;;5044104;28;20226;-70
2023/03/15 02:48:02;;;;;;;4.67;1.73;;;2.30;85.90;;;;;;5052564;28;20427;-72
2023/03/15 02:50:27;;;;;;;2.20;1.77;;;2.30;85.70;;;;;;5049386;28;20466;-72
2023/03/15 02:52:53;;;;;;;4.13;1.80;;;2.20;85.60;;;;;;5052296;28;20437;-73
2023/03/15 02:55:20;;;;;;;4.47;1.83;;;2.20;85.60;;;;;;5057340;28;20276;-73
2023/03/15 02:57:46;;;;;;;5.10;2.30;;;2.20;85.70;;;;;;5045043;28;20234;-72
2023/03/15 03:00:13;;;;;;;4.40;2.23;;;2.20;85.70;;;;;;5037755;28;20452;-71
2023/03/15 03:02:40;;;;;;;2.13;1.20;;;2.20;86.00;;;;;;5051350;28;20443;-73
2023/03/15 03:05:06;;;;;;;6.43;2.03;;;2.10;86.00;;;;;;5047931;28;20188;-72
2023/03/15 03:07:32;;;;;;;7.60;2.00;;;2.10;86.00;;;;;;5043867;28;20506;-72
2023/03/15 03:09:57;;;;;;;11.93;2.30;;;2.10;85.70;;;;;;5046214;28;20458;-73
2023/03/15 03:12:23;;;;;;;5.30;2.20;;;2.10;86.00;;;;;;5053320;28;20466;-71
2023/03/15 03:14:50;;;;;;;4.90;1.87;;;2.00;85.70;;;;;;5051774;28;20317;-72
2023/03/15 03:17:15;;;;;;;7.83;3.77;;;2.10;86.20;;;;;;5049662;28;20188;-72
2023/03/15 03:19:41;;;;;;;7.80;2.07;;;2.10;86.30;;;;;;5044376;28;20463;-72
2023/03/15 03:22:06;;;;;;;4.80;1.50;;;2.10;85.70;;;;;;5051474;28;20192;-74
2023/03/15 03:24:32;;;;;;;4.03;1.60;;;2.10;86.00;;;;;;5056172;28;20700;-72
2023/03/15 03:26:58;;;;;;;7.30;3.00;;;2.10;86.00;;;;;;5054077;28;20652;-71
2023/03/15 03:29:25;;;;;;;2.90;1.70;;;2.00;85.90;;;;;;5035098;28;20485;-73
2023/03/15 03:31:51;;;;;;;6.63;2.20;;;2.10;86.00;;;;;;5050602;28;20494;-72
2023/03/15 03:34:17;;;;;;;6.20;3.20;;;2.10;86.00;;;;;;5048150;28;20512;-71
2023/03/15 03:36:43;;;;;;;6.50;2.00;;;2.00;86.00;;;;;;5048302;28;20423;-72
2023/03/15 03:39:09;;;;;;;7.47;2.50;;;2.00;86.20;;;;;;5048134;28;20537;-72
2023/03/15 03:41:35;;;;;;;4.65;2.35;;;2.00;86.20;;;;;;5054704;28;20189;-72
2023/03/15 03:44:01;;;;;;;6.80;2.20;;;2.00;86.30;;;;;;5046263;28;20182;-72
2023/03/15 03:46:27;;;;;;;9.70;2.67;;;2.00;86.30;;;;;;5053119;28;20184;-72
2023/03/15 03:48:53;;;;;;;8.20;2.50;;;2.00;86.60;;;;;;5048777;28;20214;-72
2023/03/15 03:51:19;;;;;;;5.80;2.40;;;2.00;86.60;;;;;;5055053;28;20208;-72
2023/03/15 03:53:45;;;;;;;6.40;2.00;;;2.00;86.80;;;;;;5049446;28;20433;-72
2023/03/15 03:56:10;;;;;;;5.53;2.27;;;2.00;86.30;;;;;;5053806;28;20188;-72
2023/03/15 03:58:36;;;;;;;9.97;2.90;;;2.00;86.30;;;;;;5054543;28;20306;-72
2023/03/15 04:01:02;;;;;;;8.13;2.60;;;2.00;86.50;;;;;;5053167;28;20196;-72
2023/03/15 04:03:28;;;;;;;8.70;3.00;;;1.90;86.20;;;;;;5038475;28;20193;-73
2023/03/15 04:05:55;;;;;;;8.97;2.90;;;1.90;86.20;;;;;;5056688;28;20426;-72
2023/03/15 04:08:22;;;;;;;11.55;2.40;;;2.00;86.00;;;;;;5051895;28;20646;-74
2023/03/15 04:10:56;;;;;;;10.50;2.70;;;2.00;86.00;;;;;;5049464;28;20204;-73
2023/03/15 04:13:23;;;;;;;4.38;2.30;;;2.00;85.50;;;;;;5050523;28;20196;-72
2023/03/15 04:15:49;;;;;;;3.87;2.40;;;2.00;85.30;;;;;;5051668;28;20612;-72
2023/03/15 04:18:15;;;;;;;6.33;2.57;;;2.00;85.50;;;;;;5030624;28;20454;-73
2023/03/15 04:20:48;;;;;;;5.45;2.85;;;1.90;85.70;;;;;;5029319;28;20450;-72
2023/03/15 04:23:15;;;;;;;4.65;2.50;;;1.80;85.70;;;;;;5049080;28;20188;-72
2023/03/15 04:25:41;;;;;;;9.63;2.90;;;1.80;86.00;;;;;;5051036;28;20180;-73
2023/03/15 04:28:09;;;;;;;7.95;2.90;;;1.80;86.20;;;;;;5047787;28;20422;-73
2023/03/15 04:30:36;;;;;;;7.78;3.17;;;1.80;86.30;;;;;;5049081;28;20656;-73
2023/03/15 04:33:02;;;;;;;17.87;3.70;;;1.80;85.90;;;;;;5052072;28;20185;-73
2023/03/15 04:35:30;;;;;;;6.73;2.80;;;1.80;85.90;;;;;;5032593;28;20419;-73
2023/03/15 04:37:56;;;;;;;5.72;2.80;;;1.90;85.60;;;;;;5048351;28;20415;-73
2023/03/15 04:40:23;;;;;;;12.00;3.90;;;1.90;85.30;;;;;;5046646;28;20225;-73
2023/03/15 04:42:54;;;;;;;9.10;2.90;;;1.80;85.20;;;;;;5049229;28;20772;-73
2023/03/15 04:45:24;;;;;;;5.73;2.90;;;1.90;85.20;;;;;;5046871;28;20423;-72
2023/03/15 04:47:51;;;;;;;4.43;2.33;;;1.90;85.20;;;;;;5047136;28;20427;-73
2023/03/15 04:50:17;;;;;;;11.20;2.50;;;1.90;85.60;;;;;;5048256;28;20917;-73
2023/03/15 04:52:43;;;;;;;10.10;3.23;;;1.90;85.90;;;;;;5052744;28;20471;-73
2023/03/15 04:55:09;;;;;;;5.70;3.47;;;1.90;86.00;;;;;;5033573;28;20436;-73
2023/03/15 04:57:35;;;;;;;5.53;3.33;;;1.80;86.00;;;;;;5051596;28;20189;-73
2023/03/15 05:00:03;;;;;;;8.57;3.25;;;1.70;85.60;;;;;;5047495;28;20825;-72
2023/03/15 05:02:28;;;;;;;9.00;3.33;;;1.80;85.70;;;;;;5053013;28;20584;-72
2023/03/15 05:04:54;;;;;;;9.77;3.27;;;1.80;85.60;;;;;;5050146;28;20428;-73
2023/03/15 05:07:19;;;;;;;8.83;3.67;;;1.80;85.20;;;;;;5050392;28;20581;-72
2023/03/15 05:09:45;;;;;;;16.47;3.90;;;1.80;84.90;;;;;;5044792;28;20560;-73
2023/03/15 05:12:12;;;;;;;6.33;3.40;;;1.80;84.10;;;;;;5050453;28;20550;-72
2023/03/15 05:14:37;;;;;;;9.97;4.10;;;1.80;83.80;;;;;;5049366;28;20430;-72
2023/03/15 05:17:03;;;;;;;8.37;3.57;;;1.80;83.60;;;;;;5048891;28;20423;-72
2023/03/15 05:19:33;;;;;;;10.87;3.83;;;1.80;83.40;;;;;;5044759;28;20209;-72
2023/03/15 05:21:59;;;;;;;10.68;3.90;;;1.80;83.10;;;;;;5048772;28;20446;-73
2023/03/15 05:24:25;;;;;;;10.30;4.28;;;1.80;83.10;;;;;;5045607;28;20185;-73
2023/03/15 05:26:53;;;;;;;8.20;3.90;;;1.80;83.40;;;;;;5029333;28;20192;-73
2023/03/15 05:29:20;;;;;;;10.93;3.80;;;1.80;83.00;;;;;;5046501;28;20231;-72
2023/03/15 05:31:46;;;;;;;8.45;3.55;;;1.80;82.80;;;;;;5047827;28;20505;-73
2023/03/15 05:34:12;;;;;;;16.23;4.10;;;1.70;82.50;;;;;;5053765;28;20245;-73
2023/03/15 05:36:38;;;;;;;7.37;3.90;;;1.70;82.70;;;;;;5052127;28;20180;-72
2023/03/15 05:39:04;;;;;;;8.90;3.30;;;1.80;82.50;;;;;;5055281;28;20597;-72
2023/03/15 05:41:30;;;;;;;8.17;3.70;;;1.80;82.20;;;;;;5058073;28;20941;-73
2023/03/15 05:43:56;;;;;;;6.03;3.95;;;1.80;82.10;;;;;;5065213;28;20413;-73
2023/03/15 05:46:22;;;;;;;7.30;3.73;;;1.80;82.10;;;;;;5058731;28;20283;-73
2023/03/15 05:48:48;;;;;;;12.40;3.70;;;1.90;82.10;;;;;;5047883;28;20478;-73
2023/03/15 05:51:14;;;;;;;8.20;3.60;;;2.00;81.90;;;;;;5049663;28;20470;-73
2023/03/15 05:53:40;;;;;;;8.47;3.50;;;2.00;81.40;;;;;;5032262;28;20472;-73
2023/03/15 05:56:06;;;;;;;8.10;3.57;;;2.00;80.90;;;;;;5051227;28;20829;-74
2023/03/15 05:58:32;;;;;;;9.77;3.50;;;2.00;80.20;;;;;;5070793;28;20176;-73
2023/03/15 06:01:00;;;;;;;13.43;4.80;;;2.00;79.90;;;;;;5051805;28;20188;-73
2023/03/15 06:03:26;;;;;;;5.72;3.88;;;2.00;79.90;;;;;;5065324;28;20256;-75
2023/03/15 06:05:52;;;;;;;5.80;2.85;;;2.00;79.90;;;;;;5047269;28;20223;-73
2023/03/15 06:08:17;;;;;;;6.90;3.73;;;2.10;79.90;;;;;;5059830;28;20192;-73
2023/03/15 06:10:43;;;;;;;14.97;3.87;;;2.10;79.60;;;;;;5054020;28;20226;-74
2023/03/15 06:13:09;;;;;;;7.53;3.80;;;2.10;79.50;;;;;;5046512;28;20668;-76
2023/03/15 06:15:34;;;;;;;11.87;3.90;;;2.10;79.60;;;;;;5051970;28;20481;-74
2023/03/15 06:18:00;;;;;;;8.00;3.90;;;2.10;79.70;;;;;;5042330;28;20276;-73
2023/03/15 06:20:26;;;;;;;5.93;3.67;;;2.10;79.90;;;;;;5050082;28;20204;-73
2023/03/15 06:22:51;;;;;;;10.23;4.07;;;2.20;80.30;;;;;;5054756;28;20212;-73
2023/03/15 06:25:17;;;;;;;6.03;4.00;;;2.20;80.60;;;;;;5053512;28;20245;-72
2023/03/15 06:27:43;;;;;;;10.50;3.73;;;2.20;80.90;;;;;;5050984;28;20202;-73
2023/03/15 06:30:09;;;;;;;8.50;4.00;;;2.20;80.90;;;;;;5047986;28;20216;-74
2023/03/15 06:32:35;;;;;;;6.63;3.73;;;2.20;81.10;;;;;;5051712;28;20263;-73
2023/03/15 06:35:00;;;;;;;9.80;4.50;;;2.20;81.50;;;;;;5052027;28;20415;-73
2023/03/15 06:37:26;;;;;;;9.20;4.03;;;2.20;81.70;;;;;;5048783;28;20180;-73
2023/03/15 06:39:53;;;;;;;10.67;3.83;;;2.20;81.50;;;;;;5046759;28;20614;-73
2023/03/15 06:42:19;;;;;;;16.30;3.30;;;2.10;81.20;;;;;;5047594;28;20537;-73
2023/03/15 06:44:44;;;;;;;14.60;4.10;;;2.10;80.90;;;;;;5049032;28;20430;-74
2023/03/15 06:47:10;;;;;;;12.70;4.20;;;2.20;80.00;;;;;;5044524;28;20267;-74
2023/03/15 06:49:36;;;;;;;5.80;3.90;;;2.20;79.90;;;;;;5046122;28;20577;-74
2023/03/15 06:52:02;;;;;;;8.10;3.90;;;2.20;79.70;;;;;;5043502;28;20802;-73
2023/03/15 06:54:28;;;;;;;12.90;4.50;;;2.30;79.70;;;;;;5051393;28;20323;-74
2023/03/15 06:56:54;;;;;;;9.20;3.90;;;2.30;79.50;;;;;;5040708;28;20954;-73
2023/03/15 06:59:19;;;;;;;14.73;4.50;;;2.30;79.20;;;;;;5043502;28;20205;-73
2023/03/15 07:01:45;;;;;;;13.53;3.80;;;2.30;79.30;;;;;;5045792;28;20187;-73
2023/03/15 07:04:10;;;;;;;12.77;3.67;;;2.30;79.30;;;;;;5048050;28;20188;-73
2023/03/15 07:06:36;;;;;;;6.77;3.17;;;2.40;79.50;;;;;;5042492;28;20204;-73
2023/03/15 07:09:03;;;;;;;9.03;3.27;;;2.50;79.20;;;;;;5044192;28;20215;-74
2023/03/15 07:11:28;;;;;;;10.57;3.57;;;2.50;78.70;;;;;;5037129;28;20269;-73
2023/03/15 07:13:54;;;;;;;13.50;3.60;;;2.40;78.30;;;;;;5059977;28;20439;-73
2023/03/15 07:16:19;;;;;;;9.50;3.90;;;2.40;78.40;;;;;;5055780;28;20188;-72
2023/03/15 07:18:45;;;;;;;13.27;4.00;;;2.50;78.70;;;;;;5051268;28;20622;-72
2023/03/15 07:21:11;;;;;;;5.63;3.70;;;2.60;78.40;;;;;;5052275;28;20184;-73
2023/03/15 07:23:36;;;;;;;13.47;3.63;;;2.60;78.00;;;;;;5053643;28;20266;-73
2023/03/15 07:26:02;;;;;;;14.90;5.13;;;2.60;77.70;;;;;;5051204;28;20230;-73
2023/03/15 07:28:28;;;;;;;10.00;3.73;;;2.70;77.70;;;;;;5053275;28;20191;-74
2023/03/15 07:31:03;;;;;;;10.60;3.70;;;2.70;77.30;;;;;;5049605;28;20216;-73
2023/03/15 07:33:31;;;;;;;7.97;3.27;;;2.70;77.30;;;;;;5052407;28;20227;-74
2023/03/15 07:35:56;;;;;;;11.47;4.13;;;2.80;77.00;;;;;;5048898;28;20832;-73
2023/03/15 07:38:24;;;;;;;6.17;2.80;;;2.80;76.80;;;;;;5054196;28;20518;-73
2023/03/15 07:40:49;;;;;;;5.20;3.07;;;2.80;77.10;;;;;;5051115;28;20234;-72
2023/03/15 07:43:15;;;;;;;5.37;2.80;;;2.80;76.80;;;;;;5051954;28;20419;-74
2023/03/15 07:45:41;;;;;;;6.07;3.10;;;2.90;76.40;;;;;;5050278;28;20199;-73
2023/03/15 07:48:07;;;;;;;10.13;3.50;;;3.00;76.40;;;;;;5051571;28;20180;-74
2023/03/15 07:50:33;;;;;;;6.77;3.10;;;3.00;76.70;;;;;;5044713;28;20984;-74
2023/03/15 07:52:58;;;;;;;5.30;3.20;;;3.00;76.70;;;;;;5050865;28;20697;-74
2023/03/15 07:55:24;;;;;;;5.97;3.90;;;3.00;76.70;;;;;;5050723;28;20185;-74
2023/03/15 07:57:50;;;;;;;6.70;3.30;;;3.10;77.00;;;;;;5036544;28;20181;-74
2023/03/15 08:00:17;;;;;;;9.30;3.50;;;3.10;77.10;;;;;;5043682;28;20510;-73
2023/03/15 08:02:42;;;;;;;7.70;3.30;;;3.20;77.40;;;;;;5054056;28;20407;-73
2023/03/15 08:05:09;;;;;;;7.93;3.30;;;3.20;77.30;;;;;;5053963;28;20768;-74
2023/03/15 08:07:35;;;;;;;7.63;3.03;;;3.30;77.30;;;;;;5053403;28;20180;-73
2023/03/15 08:10:05;;;;;;;13.20;3.30;;;3.30;76.70;;;;;;5033306;28;20912;-73
2023/03/15 08:12:32;;;;;;;4.33;2.57;;;3.30;76.10;;;;;;5053145;28;20462;-74
2023/03/15 08:14:57;;;;;;;6.83;2.40;;;3.40;75.90;;;;;;5054301;28;20443;-74
2023/03/15 08:17:23;;;;;;;4.30;2.63;;;3.40;75.90;;;;;;5052492;28;20423;-74
2023/03/15 08:19:49;;;;;;;20.00;3.50;;;3.50;75.70;;;;;;5052218;28;20597;-72
2023/03/15 08:22:15;;;;;;;8.13;3.00;;;3.50;75.70;;;;;;5053017;28;20433;-73
2023/03/15 08:24:40;;;;;;;4.60;2.80;;;3.40;75.90;;;;;;5051922;28;20671;-75
2023/03/15 08:27:06;;;;;;;6.23;3.27;;;3.50;76.10;;;;;;5049932;28;20419;-73
2023/03/15 08:29:32;;;;;;;5.97;2.83;;;3.60;76.10;;;;;;5048766;28;20204;-74
2023/03/15 08:31:58;;;;;;;6.07;2.53;;;3.80;75.70;;;;;;5052997;28;20949;-74
2023/03/15 08:34:24;;;;;;;5.70;2.93;;;3.90;75.40;;;;;;5054641;28;20191;-73
2023/03/15 08:36:50;;;;;;;5.00;2.80;;;4.00;74.50;;;;;;5052152;28;20196;-74
2023/03/15 08:39:15;;;;;;;6.07;3.37;;;4.00;74.00;;;;;;5053490;28;20467;-74
2023/03/15 08:41:42;;;;;;;6.30;2.80;;;4.20;74.20;;;;;;5036711;28;20191;-74
2023/03/15 08:44:08;;;;;;;6.60;2.80;;;4.30;73.70;;;;;;5047777;28;20763;-73
2023/03/15 08:46:34;;;;;;;8.57;2.80;;;4.40;72.90;;;;;;5049573;28;20461;-73
2023/03/15 08:48:59;;;;;;;8.00;2.50;;;4.50;72.30;;;;;;5042523;28;20464;-74
2023/03/15 08:51:25;;;;;;;6.57;2.50;;;4.60;71.80;;;;;;5050542;28;20312;-74
2023/03/15 08:53:52;;;;;;;3.77;2.10;;;4.70;71.40;;;;;;5047896;28;20553;-74
2023/03/15 08:56:18;;;;;;;5.60;2.80;;;4.80;71.70;;;;;;5052972;28;20184;-74
2023/03/15 08:58:44;;;;;;;5.40;2.67;;;4.90;71.10;;;;;;5044301;28;20419;-74
2023/03/15 09:01:11;;;;;;;4.07;2.10;;;5.00;71.00;;;;;;5050359;28;20476;-74
2023/03/15 09:03:36;;;;;;;4.20;2.40;;;5.00;69.80;;;;;;5033879;28;20430;-74
2023/03/15 09:06:02;;;;;;;5.70;2.90;;;5.00;69.90;;;;;;5050032;28;20423;-73
2023/03/15 09:08:28;;;;;;;6.27;2.40;;;5.10;69.50;;;;;;5049646;28;20208;-74
2023/03/15 09:10:55;;;;;;;4.67;2.37;;;5.10;69.40;;;;;;5044667;28;20216;-73
2023/03/15 09:13:20;;;;;;;6.53;2.47;;;5.20;69.40;;;;;;5048440;28;20191;-74
2023/03/15 09:15:50;;;;;;;7.13;2.50;;;5.20;69.40;;;;;;5050825;28;20411;-74
2023/03/15 09:18:16;;;;;;;8.87;2.27;;;5.20;69.20;;;;;;5048068;28;20276;-73
2023/03/15 09:20:41;;;;;;;6.47;2.53;;;5.30;69.40;;;;;;5049708;28;20470;-73
2023/03/15 09:23:07;;;;;;;4.40;2.57;;;5.40;67.70;;;;;;5048308;28;20943;-72
2023/03/15 09:25:32;;;;;;;4.20;2.00;;;5.50;67.60;;;;;;5052220;28;20674;-73
2023/03/15 09:27:58;;;;;;;6.00;2.37;;;5.60;67.30;;;;;;5049112;28;20237;-73
2023/03/15 09:30:23;;;;;;;5.30;2.77;;;5.70;67.50;;;;;;5048411;28;20212;-74
2023/03/15 09:32:50;;;;;;;4.40;2.27;;;5.70;67.30;;;;;;5050120;28;20658;-74
2023/03/15 09:35:18;;;;;;;8.10;2.50;;;5.80;67.90;;;;;;5045545;28;20185;-74
2023/03/15 09:37:44;;;;;;;2.77;1.90;;;5.80;66.40;;;;;;5052004;28;20429;-74
2023/03/15 09:40:17;;;;;;;10.80;2.73;;;5.80;66.60;;;;;;5031583;28;20471;-74
2023/03/15 09:42:52;;;;;;;5.00;2.10;;;5.90;67.30;;;;;;5051874;28;20430;-74
2023/03/15 09:45:39;;;;;;;4.60;2.00;;;6.00;66.40;;;;;;5050472;28;20932;-74
2023/03/15 09:48:28;;;;;;;6.63;2.43;;;5.90;64.80;;;;;;5051203;28;20445;-74
2023/03/15 09:51:14;;;;;;;3.30;2.00;;;5.80;65.30;;;;;;5046639;28;20465;-72
2023/03/15 09:54:24;;;;;;;10.13;2.17;;;6.00;65.70;;;;;;5049968;28;20481;-75
2023/03/15 09:56:58;;;;;;;7.83;2.50;;;5.90;66.30;;;;;;4947978;29;20494;-74
2023/03/15 09:59:48;;;;;;;6.90;2.63;;;5.90;66.90;;;;;;4948034;29;20460;-74
2023/03/15 10:02:20;;;;;;;11.33;2.40;;;5.90;67.00;;;;;;4950069;29;20443;-73
2023/03/15 10:04:50;;;;;;;9.30;2.10;;;5.90;67.00;;;;;;4951452;29;20463;-74
2023/03/15 10:07:16;;;;;;;6.80;2.23;;;5.90;66.70;;;;;;4951746;28;20550;-73
2023/03/15 10:09:42;;;;;;;6.63;1.93;;;5.90;66.30;;;;;;4944749;29;20932;-73
2023/03/15 10:12:20;;;;;;;3.33;2.20;;;5.90;66.00;;;;;;4935138;28;20223;-75
2023/03/15 10:14:51;;;;;;;2.87;1.90;;;6.00;65.40;;;;;;4946543;29;20187;-74
2023/03/15 10:17:46;;;;;;;6.57;2.10;;;6.20;64.70;;;;;;4949936;29;20431;-75
2023/03/15 10:20:40;;;;;;;5.73;2.10;;;6.30;63.70;;;;;;4946463;29;21006;-75
2023/03/15 10:23:19;;;;;;;3.33;1.80;;;6.60;63.70;;;;;;4948175;28;20802;-75
2023/03/15 10:25:47;;;;;;;3.50;1.83;;;6.60;62.90;;;;;;4952021;28;20438;-72
2023/03/15 10:28:22;;;;;;;5.77;2.37;;;6.60;62.80;;;;;;4953695;29;20451;-74
2023/03/15 10:30:52;;;;;;;4.90;2.00;;;6.60;62.20;;;;;;4946899;29;20477;-75
2023/03/15 10:33:32;;;;;;;11.63;2.47;;;6.60;62.00;;;;;;5044450;28;20432;-75
2023/03/15 10:35:59;;;;;;;4.07;1.60;;;6.60;62.00;;;;;;5046845;28;20402;-75
2023/03/15 10:38:26;;;;;;;4.57;2.00;;;6.70;62.30;;;;;;5049461;28;20422;-75
2023/03/15 10:40:57;;;;;;;1.83;1.50;;;6.60;60.90;;;;;;5045165;28;20466;-74
2023/03/15 10:43:33;;;;;;;15.63;2.13;;;6.60;62.20;;;;;;5048197;28;20426;-75
2023/03/15 10:46:09;;;;;;;4.70;1.77;;;7.00;60.70;;;;;;5046720;28;20419;-74
2023/03/15 10:48:40;;;;;;;4.10;1.63;;;7.30;60.30;;;;;;5052424;28;20952;-75
2023/03/15 10:51:24;;;;;;;5.63;2.20;;;7.30;58.80;;;;;;5049087;28;20470;-75
2023/03/15 10:54:06;;;;;;;4.87;1.97;;;7.20;59.30;;;;;;5033515;28;20426;-74
2023/03/15 10:56:58;;;;;;;4.37;1.80;;;7.10;59.60;;;;;;5028141;28;20419;-75
2023/03/15 10:59:26;;;;;;;3.33;1.57;;;7.20;59.90;;;;;;5035055;28;20459;-75
2023/03/15 11:02:06;;;;;;;6.07;1.77;;;7.50;59.60;;;;;;5050818;28;20425;-75
2023/03/15 11:04:31;;;;;;;3.17;1.40;;;7.70;59.50;;;;;;5043902;28;20422;-74
2023/03/15 11:06:57;;;;;;;3.13;1.80;;;7.80;58.70;;;;;;5028834;28;21029;-74
2023/03/15 11:09:25;;;;;;;5.10;1.83;;;7.70;58.90;;;;;;5053861;28;20196;-74
2023/03/15 11:12:02;;;;;;;8.50;1.70;;;7.70;59.50;;;;;;5067340;28;20227;-74
2023/03/15 11:14:32;;;;;;;4.90;1.97;;;7.80;58.40;;;;;;5073513;28;20471;-75
2023/03/15 11:16:59;;;;;;;4.03;1.60;;;7.70;58.40;;;;;;5054270;28;20427;-74
2023/03/15 11:19:28;;;;;;;5.97;1.93;;;7.60;59.30;;;;;;5062766;28;20466;-74
2023/03/15 11:21:54;;;;;;;4.13;1.50;;;7.40;59.50;;;;;;5066770;28;20447;-76
2023/03/15 11:24:32;;;;;;;5.30;1.73;;;7.40;59.90;;;;;;5070183;28;20857;-75
2023/03/15 11:27:01;;;;;;;5.00;1.40;;;7.40;60.10;;;;;;5059851;28;20430;-75
2023/03/15 11:29:31;;;;;;;7.40;2.23;;;7.40;59.90;;;;;;5050595;28;20450;-74
2023/03/15 11:32:04;;;;;;;4.60;1.63;;;7.50;60.00;;;;;;5052673;28;20505;-75
2023/03/15 11:34:58;;;;;;;2.70;1.53;;;7.60;58.70;;;;;;5055201;28;20414;-75
2023/03/15 11:37:30;;;;;;;6.50;1.40;;;7.70;57.80;;;;;;5028552;28;20430;-73
2023/03/15 11:40:21;;;;;;;5.20;1.80;;;7.50;58.00;;;;;;5044623;28;20481;-75
2023/03/15 11:42:56;;;;;;;3.93;1.60;;;7.30;57.20;;;;;;5043009;28;20422;-75
2023/03/15 11:45:40;;;;;;;6.93;1.73;;;7.50;58.10;;;;;;5046477;28;20418;-75
2023/03/15 11:48:35;;;;;;;2.43;1.50;;;7.60;58.00;;;;;;5047540;28;20430;-75
2023/03/15 11:51:01;;;;;;;3.30;1.60;;;7.80;57.80;;;;;;5047346;28;20534;-75
2023/03/15 11:53:35;;;;;;;3.87;1.53;;;7.90;57.70;;;;;;5043780;28;20412;-74
2023/03/15 11:56:24;;;;;;;4.20;1.30;;;7.80;57.00;;;;;;5042654;28;20461;-75
2023/03/15 11:59:12;;;;;;;4.70;2.17;;;7.90;54.40;;;;;;5050344;28;20494;-75
2023/03/15 12:01:50;;;;;;;2.40;1.20;;;7.80;53.00;;;;;;5054134;28;20414;-73
2023/03/15 12:04:31;;;;;;;4.27;1.20;;;7.80;52.90;;;;;;5031321;28;20906;-75
2023/03/15 12:07:05;;;;;;;2.60;1.13;;;7.70;52.80;;;;;;5034124;28;20545;-75
2023/03/15 12:09:36;;;;;;;2.70;1.10;;;7.60;53.40;;;;;;5046907;28;20461;-75
2023/03/15 12:12:03;;;;;;;4.10;1.17;;;7.60;53.00;;;;;;5036252;28;20580;-75
2023/03/15 12:14:30;;;;;;;3.40;1.50;;;7.40;53.70;;;;;;5053407;28;20443;-75
2023/03/15 12:17:27;;;;;;;4.87;1.80;;;7.50;54.10;;;;;;5052617;28;20414;-75
2023/03/15 12:19:58;;;;;;;2.63;1.50;;;7.60;54.40;;;;;;5014374;28;20553;-77
2023/03/15 12:22:30;;;;;;;5.93;2.20;;;7.90;54.80;;;;;;5054368;28;20855;-75
2023/03/15 12:25:03;;;;;;;10.73;2.50;;;8.00;54.40;;;;;;5054687;28;20790;-75
2023/03/15 12:27:29;;;;;;;5.30;1.30;;;8.20;54.60;;;;;;5050520;28;20434;-74
2023/03/15 12:30:01;;;;;;;3.60;1.40;;;8.10;54.50;;;;;;5052025;28;20494;-75
2023/03/15 12:32:29;;;;;;;3.00;1.40;;;8.00;54.40;;;;;;5030428;28;20486;-76
2023/03/15 12:35:12;;;;;;;1.17;0.80;;;8.00;54.80;;;;;;5050635;28;20425;-75
2023/03/15 12:37:42;;;;;;;4.70;1.77;;;7.80;55.20;;;;;;5048379;28;20910;-76
2023/03/15 12:40:17;;;;;;;5.63;1.97;;;7.80;56.00;;;;;;5048113;28;20470;-75
2023/03/15 12:42:43;;;;;;;6.57;1.80;;;7.80;56.40;;;;;;5050851;28;20454;-76
2023/03/15 12:45:14;;;;;;;5.63;1.50;;;7.70;56.10;;;;;;5053654;28;20936;-76
2023/03/15 12:47:44;;;;;;;4.67;1.53;;;7.80;56.20;;;;;;5048503;28;20540;-75
2023/03/15 12:50:51;;;;;;;3.70;2.20;;;7.80;56.20;;;;;;5051116;28;20459;-74
2023/03/15 12:53:29;;;;;;;4.83;2.60;;;7.70;56.60;;;;;;5033931;28;20443;-75
2023/03/15 12:55:57;;;;;;;5.90;2.17;;;7.80;57.20;;;;;;5036825;28;20991;-75
2023/03/15 12:58:36;;;;;;;4.63;2.40;;;7.80;57.40;;;;;;5046218;28;20420;-76
2023/03/15 13:01:04;;;;;;;6.93;2.30;;;7.90;57.70;;;;;;5027445;28;20435;-75
2023/03/15 13:03:33;;;;;;;3.80;1.67;;;7.80;57.70;;;;;;5037083;28;20968;-76